createdAt,value
2023-01-25T00:01:43.453Z,13.30
2023-01-25T00:03:46.594Z,14.33
2023-01-25T00:05:49.387Z,13.90
2023-01-25T00:07:52.320Z,13.00
2023-01-25T00:09:55.141Z,13.40
2023-01-25T00:11:58.218Z,14.30
2023-01-25T00:14:02.392Z,14.33
2023-01-25T00:16:06.246Z,14.20
2023-01-25T00:18:09.153Z,13.20
2023-01-25T00:20:12.363Z,15.07
2023-01-25T00:22:15.148Z,13.90
2023-01-25T00:24:18.126Z,13.80
2023-01-25T00:26:21.162Z,14.70
2023-01-25T00:28:23.963Z,14.13
2023-01-25T00:30:28.192Z,14.77
2023-01-25T00:32:39.204Z,15.80
2023-01-25T00:34:47.647Z,15.20
2023-01-25T00:36:51.323Z,14.07
2023-01-25T00:38:54.708Z,14.70
2023-01-25T00:40:59.019Z,15.00
2023-01-25T00:43:01.876Z,15.10
2023-01-25T00:45:05.893Z,15.87
2023-01-25T00:47:10.605Z,17.43
2023-01-25T00:49:22.174Z,16.93
2023-01-25T00:51:25.518Z,16.27
2023-01-25T00:53:28.772Z,17.17
2023-01-25T00:55:31.618Z,16.30
2023-01-25T00:57:34.599Z,18.30
2023-01-25T00:59:37.615Z,17.20
2023-01-25T01:01:41.675Z,16.30
2023-01-25T01:03:46.166Z,17.33
2023-01-25T01:05:49.672Z,16.93
2023-01-25T01:07:52.576Z,16.83
2023-01-25T01:09:55.639Z,16.93
2023-01-25T01:12:00.823Z,18.10
2023-01-25T01:14:03.748Z,17.53
2023-01-25T01:16:11.771Z,15.87
2023-01-25T01:18:14.607Z,16.20
2023-01-25T01:20:18.987Z,15.87
2023-01-25T01:22:21.762Z,17.07
2023-01-25T01:24:24.633Z,16.70
2023-01-25T01:26:27.512Z,17.80
2023-01-25T01:28:30.537Z,17.10
2023-01-25T01:30:33.584Z,16.50
2023-01-25T01:32:36.584Z,18.37
2023-01-25T01:34:39.804Z,16.60
2023-01-25T01:36:44.511Z,17.50
2023-01-25T01:38:48.169Z,17.27
2023-01-25T01:40:51.789Z,16.80
2023-01-25T01:42:58.991Z,17.10
2023-01-25T01:45:01.886Z,16.27
2023-01-25T01:47:04.863Z,16.60
2023-01-25T01:49:13.861Z,15.90
2023-01-25T01:51:20.817Z,15.90
2023-01-25T01:53:26.475Z,15.27
2023-01-25T01:55:30.268Z,14.63
2023-01-25T01:57:36.426Z,15.40
2023-01-25T01:59:45.878Z,15.50
2023-01-25T02:01:48.744Z,16.23
2023-01-25T02:03:51.975Z,16.67
2023-01-25T02:05:57.826Z,16.57
2023-01-25T02:08:02.120Z,16.23
2023-01-25T02:10:08.292Z,17.87
2023-01-25T02:12:11.840Z,16.03
2023-01-25T02:14:16.182Z,16.50
2023-01-25T02:16:22.613Z,16.07
2023-01-25T02:18:26.276Z,17.57
2023-01-25T02:20:35.452Z,16.67
2023-01-25T02:22:55.673Z,16.87
2023-01-25T02:25:07.039Z,19.10
2023-01-25T02:27:10.240Z,15.97
2023-01-25T02:29:14.023Z,17.00
2023-01-25T02:31:17.001Z,16.83
2023-01-25T02:33:19.982Z,14.73
2023-01-25T02:35:24.956Z,12.90
2023-01-25T02:37:27.916Z,15.57
2023-01-25T02:39:31.422Z,13.80
2023-01-25T02:41:37.063Z,14.80
2023-01-25T02:43:40.223Z,16.27
2023-01-25T02:45:45.499Z,16.00
2023-01-25T02:47:48.700Z,15.37
2023-01-25T02:49:51.598Z,15.33
2023-01-25T02:51:57.395Z,14.33
2023-01-25T02:54:01.214Z,15.10
2023-01-25T02:56:04.600Z,15.03
2023-01-25T02:58:08.900Z,16.23
2023-01-25T03:00:12.707Z,16.30
2023-01-25T03:02:15.541Z,15.50
2023-01-25T03:04:19.367Z,15.00
2023-01-25T03:06:23.533Z,16.70
2023-01-25T03:08:26.788Z,14.60
2023-01-25T03:10:30.293Z,17.03
2023-01-25T03:12:34.070Z,16.30
2023-01-25T03:14:38.309Z,16.37
2023-01-25T03:16:42.098Z,15.40
2023-01-25T03:18:45.363Z,15.10
2023-01-25T03:20:48.601Z,15.67
2023-01-25T03:22:51.476Z,15.70
2023-01-25T03:24:54.376Z,14.83
2023-01-25T03:27:14.193Z,16.20
2023-01-25T03:29:20.782Z,16.87
2023-01-25T03:31:26.921Z,17.80
2023-01-25T03:33:30.199Z,16.63
2023-01-25T03:35:34.027Z,15.80
2023-01-25T03:37:36.974Z,16.77
2023-01-25T03:39:41.800Z,17.23
2023-01-25T03:41:45.341Z,16.80
2023-01-25T03:43:49.719Z,14.50
2023-01-25T03:45:54.733Z,16.50
2023-01-25T03:47:58.935Z,16.50
2023-01-25T03:50:01.775Z,14.97
2023-01-25T03:52:04.930Z,15.57
2023-01-25T03:54:12.649Z,16.07
2023-01-25T03:56:19.888Z,17.97
2023-01-25T03:58:32.818Z,14.90
2023-01-25T04:00:35.715Z,17.13
2023-01-25T04:02:38.650Z,16.50
2023-01-25T04:04:44.896Z,15.63
2023-01-25T04:06:48.922Z,16.23
2023-01-25T04:08:51.926Z,16.60
2023-01-25T04:10:57.510Z,18.00
2023-01-25T04:13:00.512Z,16.73
2023-01-25T04:15:03.498Z,17.17
2023-01-25T04:17:08.331Z,16.93
2023-01-25T04:19:47.688Z,17.60
2023-01-25T04:21:53.905Z,18.30
2023-01-25T04:23:56.883Z,17.87
2023-01-25T04:26:01.319Z,17.40
2023-01-25T04:28:04.559Z,17.60
2023-01-25T04:30:08.650Z,18.40
2023-01-25T04:32:12.986Z,18.93
2023-01-25T04:34:15.998Z,18.40
2023-01-25T04:36:20.511Z,21.50
2023-01-25T04:38:24.165Z,17.37
2023-01-25T04:40:27.856Z,19.10
2023-01-25T04:42:31.598Z,17.80
2023-01-25T04:44:35.319Z,17.60
2023-01-25T04:46:38.303Z,18.60
2023-01-25T04:48:42.626Z,16.50
2023-01-25T04:50:46.915Z,17.17
2023-01-25T04:52:51.858Z,16.60
2023-01-25T04:54:55.463Z,15.60
2023-01-25T04:56:58.600Z,15.30
2023-01-25T04:59:01.618Z,16.00
2023-01-25T05:01:05.520Z,16.80
2023-01-25T05:03:08.648Z,16.83
2023-01-25T05:05:11.955Z,13.63
2023-01-25T05:07:15.032Z,15.93
2023-01-25T05:09:19.654Z,17.00
2023-01-25T05:11:23.146Z,17.70
2023-01-25T05:13:39.088Z,15.63
2023-01-25T05:15:53.457Z,16.20
2023-01-25T05:17:56.669Z,13.67
2023-01-25T05:20:00.461Z,13.43
2023-01-25T05:22:07.495Z,13.40
2023-01-25T05:24:17.246Z,12.73
2023-01-25T05:26:38.869Z,12.77
2023-01-25T05:28:43.151Z,14.60
2023-01-25T05:30:56.590Z,14.57
2023-01-25T05:33:03.314Z,13.77
2023-01-25T05:35:07.740Z,16.00
2023-01-25T05:37:12.427Z,14.30
2023-01-25T05:39:18.347Z,13.87
2023-01-25T05:41:25.105Z,14.67
2023-01-25T05:43:28.745Z,12.70
2023-01-25T05:45:32.163Z,13.90
2023-01-25T05:47:35.082Z,14.43
2023-01-25T05:49:39.163Z,12.80
2023-01-25T05:51:45.268Z,16.40
2023-01-25T05:53:48.231Z,14.77
2023-01-25T05:55:51.131Z,16.50
2023-01-25T05:57:57.923Z,16.07
2023-01-25T06:00:00.879Z,17.43
2023-01-25T06:02:04.707Z,16.07
2023-01-25T06:04:08.346Z,15.40
2023-01-25T06:06:11.569Z,15.80
2023-01-25T06:08:14.455Z,15.53
2023-01-25T06:10:24.171Z,18.63
2023-01-25T06:12:29.432Z,16.10
2023-01-25T06:14:34.788Z,16.20
2023-01-25T06:16:39.129Z,16.90
2023-01-25T06:19:02.126Z,15.47
2023-01-25T06:21:14.012Z,16.10
2023-01-25T06:23:16.984Z,14.13
2023-01-25T06:25:20.021Z,17.40
2023-01-25T06:27:22.821Z,54.97
2023-01-25T06:29:25.993Z,16.00
2023-01-25T06:31:30.356Z,15.60
2023-01-25T06:33:33.319Z,16.13
2023-01-25T06:35:36.752Z,15.90
2023-01-25T06:37:39.579Z,16.70
2023-01-25T06:39:42.423Z,15.93
2023-01-25T06:41:45.251Z,14.90
2023-01-25T06:43:48.857Z,15.13
2023-01-25T06:45:51.744Z,17.00
2023-01-25T06:47:55.962Z,15.50
2023-01-25T06:49:58.868Z,13.33
2023-01-25T06:52:01.982Z,14.23
2023-01-25T06:54:05.322Z,12.30
2023-01-25T06:56:11.778Z,12.77
2023-01-25T06:58:14.887Z,13.43
2023-01-25T07:00:19.245Z,12.53
2023-01-25T07:02:22.464Z,12.77
2023-01-25T07:04:26.755Z,13.30
2023-01-25T07:06:33.567Z,13.40
2023-01-25T07:08:36.947Z,12.87
2023-01-25T07:10:39.793Z,12.43
2023-01-25T07:12:42.687Z,13.37
2023-01-25T07:14:47.398Z,12.57
2023-01-25T07:16:50.247Z,12.50
2023-01-25T07:18:53.700Z,11.67
2023-01-25T07:21:04.044Z,14.27
2023-01-25T07:23:06.827Z,13.27
2023-01-25T07:25:10.913Z,13.83
2023-01-25T07:27:14.005Z,12.87
2023-01-25T07:29:17.599Z,13.47
2023-01-25T07:31:21.216Z,14.17
2023-01-25T07:33:24.163Z,14.00
2023-01-25T07:35:27.067Z,14.57
2023-01-25T07:37:31.328Z,14.13
2023-01-25T07:39:34.841Z,14.53
2023-01-25T07:41:37.673Z,14.63
2023-01-25T07:43:40.778Z,14.27
2023-01-25T07:45:48.718Z,14.73
2023-01-25T07:47:51.546Z,15.83
2023-01-25T07:49:54.961Z,14.20
2023-01-25T07:51:57.838Z,14.50
2023-01-25T07:54:03.749Z,13.73
2023-01-25T07:56:07.416Z,14.50
2023-01-25T07:58:11.922Z,13.90
2023-01-25T08:00:15.735Z,14.13
2023-01-25T08:02:18.621Z,12.93
2023-01-25T08:04:21.461Z,14.00
2023-01-25T08:06:27.319Z,14.77
2023-01-25T08:08:30.340Z,14.03
2023-01-25T08:10:34.543Z,13.60
2023-01-25T08:12:38.027Z,15.00
2023-01-25T08:14:40.889Z,15.63
2023-01-25T08:16:43.815Z,14.50
2023-01-25T08:18:48.480Z,15.00
2023-01-25T08:20:51.340Z,15.70
2023-01-25T08:22:54.247Z,15.47
2023-01-25T08:24:57.564Z,14.97
2023-01-25T08:27:01.786Z,13.73
2023-01-25T08:29:05.080Z,14.13
2023-01-25T08:31:09.150Z,17.20
2023-01-25T08:33:12.004Z,15.70
2023-01-25T08:35:15.159Z,13.77
2023-01-25T08:37:18.138Z,13.47
2023-01-25T08:39:20.985Z,12.83
2023-01-25T08:41:24.436Z,15.20
2023-01-25T08:43:28.654Z,14.60
2023-01-25T08:45:34.595Z,13.07
2023-01-25T08:47:37.618Z,14.43
2023-01-25T08:49:40.448Z,14.33
2023-01-25T08:51:43.484Z,14.40
2023-01-25T08:53:46.339Z,14.60
2023-01-25T08:55:49.352Z,13.93
2023-01-25T08:57:52.242Z,13.93
2023-01-25T08:59:56.438Z,15.43
2023-01-25T09:01:59.266Z,15.10
2023-01-25T09:04:03.373Z,15.40
2023-01-25T09:06:06.864Z,15.10
2023-01-25T09:08:11.192Z,15.90
2023-01-25T09:10:14.078Z,14.70
2023-01-25T09:12:16.892Z,14.63
2023-01-25T09:14:19.820Z,16.10
2023-01-25T09:16:29.425Z,14.70
2023-01-25T09:18:33.241Z,15.27
2023-01-25T09:20:36.128Z,13.20
2023-01-25T09:22:40.602Z,15.77
2023-01-25T09:24:43.561Z,15.60
2023-01-25T09:26:55.889Z,16.27
2023-01-25T09:29:02.123Z,16.67
2023-01-25T09:31:21.210Z,15.20
2023-01-25T09:33:47.357Z,15.23
2023-01-25T09:35:50.532Z,15.33
2023-01-25T09:37:53.467Z,15.93
2023-01-25T09:39:56.302Z,14.60
2023-01-25T09:42:37.735Z,13.77
2023-01-25T09:44:50.342Z,12.90
2023-01-25T09:46:55.396Z,12.23
2023-01-25T09:50:03.237Z,14.17
2023-01-25T09:51:38.331Z,13.03
2023-01-25T09:53:42.609Z,11.60
2023-01-25T09:55:45.548Z,13.37
2023-01-25T09:57:50.936Z,12.23
2023-01-25T09:59:55.197Z,13.03
2023-01-25T10:02:01.684Z,13.20
2023-01-25T10:04:12.014Z,12.97
2023-01-25T10:06:15.604Z,14.60
2023-01-25T10:08:25.875Z,14.00
2023-01-25T10:10:33.976Z,14.60
2023-01-25T10:12:38.926Z,14.17
2023-01-25T10:14:41.796Z,14.50
2023-01-25T10:16:52.631Z,14.53
2023-01-25T10:19:02.648Z,15.07
2023-01-25T10:21:10.975Z,13.63
2023-01-25T10:23:29.191Z,14.30
2023-01-25T10:25:37.051Z,13.53
2023-01-25T10:27:43.026Z,16.90
2023-01-25T10:29:46.231Z,13.70
2023-01-25T10:31:51.516Z,14.20
2023-01-25T10:33:55.792Z,15.03
2023-01-25T10:36:00.131Z,15.07
2023-01-25T10:38:06.720Z,15.67
2023-01-25T10:40:17.014Z,15.70
2023-01-25T10:42:20.256Z,16.77
2023-01-25T10:44:24.573Z,15.60
2023-01-25T10:46:27.880Z,15.30
2023-01-25T10:48:34.057Z,15.37
2023-01-25T10:50:57.829Z,14.40
2023-01-25T10:53:00.825Z,14.17
2023-01-25T10:55:16.233Z,14.87
2023-01-25T10:57:20.595Z,15.30
2023-01-25T10:59:26.163Z,13.80
2023-01-25T11:01:32.946Z,15.00
2023-01-25T11:03:38.291Z,15.47
2023-01-25T11:05:41.895Z,14.97
2023-01-25T11:07:44.802Z,14.50
2023-01-25T11:09:47.804Z,15.23
2023-01-25T11:11:56.900Z,14.67
2023-01-25T11:14:00.040Z,14.47
2023-01-25T11:16:19.625Z,10.97
2023-01-25T11:18:25.218Z,14.20
2023-01-25T11:20:28.216Z,14.43
2023-01-25T11:22:31.125Z,14.43
2023-01-25T11:24:35.467Z,13.80
2023-01-25T11:26:40.073Z,14.50
2023-01-25T11:28:45.605Z,15.13
2023-01-25T11:30:49.158Z,13.80
2023-01-25T11:32:52.059Z,12.83
2023-01-25T11:34:56.080Z,13.87
2023-01-25T11:37:12.708Z,13.90
2023-01-25T11:39:25.876Z,13.53
2023-01-25T11:41:36.261Z,12.80
2023-01-25T11:43:51.361Z,13.73
2023-01-25T11:46:17.857Z,13.03
2023-01-25T11:48:34.648Z,11.23
2023-01-25T11:50:39.759Z,13.27
2023-01-25T11:52:57.708Z,12.83
2023-01-25T11:55:08.304Z,13.03
2023-01-25T11:57:22.110Z,13.50
2023-01-25T11:59:38.835Z,12.30
2023-01-25T12:01:52.669Z,13.93
2023-01-25T12:04:26.652Z,14.93
2023-01-25T12:06:36.843Z,13.63
2023-01-25T12:08:50.503Z,15.03
2023-01-25T12:10:57.982Z,13.70
2023-01-25T12:13:04.566Z,13.03
2023-01-25T12:15:23.710Z,13.97
2023-01-25T12:17:37.903Z,13.47
2023-01-25T12:19:52.919Z,12.77
2023-01-25T12:22:09.424Z,13.70
2023-01-25T12:24:24.214Z,12.23
2023-01-25T12:26:29.605Z,12.70
2023-01-25T12:28:36.028Z,12.57
2023-01-25T12:30:46.329Z,14.13
2023-01-25T12:32:53.881Z,15.10
2023-01-25T12:35:14.440Z,14.93
2023-01-25T12:37:19.935Z,13.90
2023-01-25T12:39:25.514Z,12.93
2023-01-25T12:41:33.235Z,13.17
2023-01-25T12:43:40.056Z,13.97
2023-01-25T12:45:46.731Z,12.60
2023-01-25T12:47:53.674Z,13.13
2023-01-25T12:49:59.681Z,12.93
2023-01-25T12:52:06.802Z,13.77
2023-01-25T12:54:17.834Z,15.20
2023-01-25T12:56:30.136Z,13.00
2023-01-25T12:58:40.196Z,15.13
2023-01-25T13:00:48.954Z,13.50
2023-01-25T13:03:00.501Z,13.70
2023-01-25T13:05:11.095Z,13.00
2023-01-25T13:07:18.035Z,11.53
2023-01-25T13:09:27.147Z,12.60
2023-01-25T13:11:34.747Z,13.00
2023-01-25T13:13:37.706Z,12.73
2023-01-25T13:15:42.125Z,13.30
2023-01-25T13:17:46.437Z,13.40
2023-01-25T13:19:50.049Z,12.20
2023-01-25T13:21:56.587Z,13.00
2023-01-25T13:24:22.248Z,13.00
2023-01-25T13:27:02.315Z,12.57
2023-01-25T13:29:05.261Z,12.37
2023-01-25T13:31:08.173Z,11.77
2023-01-25T13:33:36.229Z,12.67
2023-01-25T13:35:44.997Z,12.93
2023-01-25T13:37:58.686Z,12.90
2023-01-25T13:40:10.165Z,12.10
2023-01-25T13:42:23.943Z,13.30
2023-01-25T13:44:29.291Z,12.60
2023-01-25T13:46:32.241Z,12.00
2023-01-25T13:48:38.321Z,13.07
2023-01-25T13:50:52.909Z,12.80
2023-01-25T13:52:59.093Z,11.33
2023-01-25T13:55:02.184Z,11.73
2023-01-25T13:57:05.734Z,12.53
2023-01-25T13:59:23.127Z,12.40
2023-01-25T14:01:27.110Z,12.87
2023-01-25T14:03:31.614Z,11.97
2023-01-25T14:05:35.861Z,12.70
2023-01-25T14:07:38.909Z,11.00
2023-01-25T14:09:43.390Z,12.63
2023-01-25T14:11:47.675Z,13.00
2023-01-25T14:14:01.191Z,12.33
2023-01-25T14:16:04.795Z,12.40
2023-01-25T14:18:16.392Z,11.80
2023-01-25T14:20:21.490Z,12.70
2023-01-25T14:22:27.436Z,11.83
2023-01-25T14:24:30.681Z,12.50
2023-01-25T14:26:34.082Z,12.73
2023-01-25T14:28:36.935Z,11.87
2023-01-25T14:30:40.206Z,12.37
2023-01-25T14:32:43.446Z,11.80
2023-01-25T14:34:46.393Z,11.57
2023-01-25T14:36:49.274Z,12.33
2023-01-25T14:38:53.711Z,11.93
2023-01-25T14:40:59.398Z,12.03
2023-01-25T14:43:03.217Z,13.50
2023-01-25T14:45:07.036Z,12.43
2023-01-25T14:47:31.638Z,12.10
2023-01-25T14:49:34.599Z,11.60
2023-01-25T14:51:42.022Z,13.47
2023-01-25T14:53:47.585Z,14.17
2023-01-25T14:55:52.119Z,12.93
2023-01-25T14:58:00.122Z,12.90
2023-01-25T15:00:06.098Z,12.50
2023-01-25T15:02:26.562Z,13.03
2023-01-25T15:04:29.798Z,13.93
2023-01-25T15:06:32.717Z,12.53
2023-01-25T15:08:38.615Z,12.80
2023-01-25T15:10:53.124Z,14.43
2023-01-25T15:13:12.801Z,13.00
2023-01-25T15:15:20.601Z,11.87
2023-01-25T15:17:44.177Z,12.53
2023-01-25T15:19:53.357Z,13.27
2023-01-25T15:21:57.760Z,14.00
2023-01-25T15:24:04.758Z,14.93
2023-01-25T15:26:16.126Z,14.80
2023-01-25T15:28:19.034Z,14.83
2023-01-25T15:30:22.284Z,16.20
2023-01-25T15:32:25.286Z,15.67
2023-01-25T15:34:30.437Z,15.63
2023-01-25T15:36:34.299Z,14.60
2023-01-25T15:38:37.626Z,15.40
2023-01-25T15:40:40.477Z,16.40
2023-01-25T15:42:44.794Z,16.33
2023-01-25T15:44:47.624Z,16.93
2023-01-25T15:46:52.359Z,17.20
2023-01-25T15:48:55.617Z,18.30
2023-01-25T15:50:58.867Z,16.30
2023-01-25T15:53:01.704Z,17.27
2023-01-25T15:55:05.003Z,19.17
2023-01-25T15:57:09.761Z,18.63
2023-01-25T15:59:18.842Z,19.77
2023-01-25T16:01:22.575Z,17.87
2023-01-25T16:03:25.568Z,18.97
2023-01-25T16:05:29.320Z,18.13
2023-01-25T16:07:32.701Z,19.27
2023-01-25T16:09:35.579Z,21.93
2023-01-25T16:11:38.477Z,20.03
2023-01-25T16:13:42.706Z,20.20
2023-01-25T16:15:50.305Z,21.93
2023-01-25T16:17:53.472Z,22.43
2023-01-25T16:19:56.421Z,22.27
2023-01-25T16:21:59.487Z,23.17
2023-01-25T16:24:02.464Z,23.23
2023-01-25T16:26:05.994Z,23.03
2023-01-25T16:28:11.117Z,22.20
2023-01-25T16:30:19.376Z,22.80
2023-01-25T16:32:23.645Z,24.07
2023-01-25T16:34:26.612Z,25.00
2023-01-25T16:36:30.414Z,23.23
2023-01-25T16:38:33.237Z,24.33
2023-01-25T16:40:39.580Z,23.90
2023-01-25T16:42:42.433Z,24.00
2023-01-25T16:44:45.408Z,25.97
2023-01-25T16:46:50.342Z,23.30
2023-01-25T16:48:54.747Z,24.47
2023-01-25T16:50:58.622Z,25.00
2023-01-25T16:53:01.778Z,25.17
2023-01-25T16:55:05.187Z,23.83
2023-01-25T16:57:19.823Z,25.20
2023-01-25T16:59:25.900Z,25.10
2023-01-25T17:01:29.145Z,26.70
2023-01-25T17:03:32.023Z,27.50
2023-01-25T17:05:39.399Z,26.90
2023-01-25T17:07:42.635Z,26.27
2023-01-25T17:09:45.455Z,25.90
2023-01-25T17:11:48.402Z,30.17
2023-01-25T17:13:52.056Z,26.60
2023-01-25T17:15:57.139Z,27.03
2023-01-25T17:18:00.056Z,28.57
2023-01-25T17:20:03.776Z,28.93
2023-01-25T17:22:08.099Z,27.90
2023-01-25T17:24:13.748Z,26.43
2023-01-25T17:26:18.033Z,30.33
2023-01-25T17:28:20.908Z,29.40
2023-01-25T17:30:23.818Z,28.90
2023-01-25T17:32:27.231Z,30.50
2023-01-25T17:34:30.276Z,30.43
2023-01-25T17:36:33.176Z,31.37
2023-01-25T17:38:37.632Z,31.30
2023-01-25T17:40:40.946Z,29.83
2023-01-25T17:42:43.785Z,30.57
2023-01-25T17:44:46.688Z,32.20
2023-01-25T17:46:50.077Z,29.97
2023-01-25T17:48:53.278Z,29.40
2023-01-25T17:51:02.737Z,29.93
2023-01-25T17:53:06.517Z,31.80
2023-01-25T17:55:14.047Z,32.50
2023-01-25T17:57:19.166Z,29.33
2023-01-25T17:59:22.172Z,31.13
2023-01-25T18:01:27.129Z,30.87
2023-01-25T18:03:30.099Z,29.50
2023-01-25T18:05:33.004Z,32.17
2023-01-25T18:07:35.903Z,31.27
2023-01-25T18:09:38.792Z,31.30
2023-01-25T18:11:43.060Z,30.60
2023-01-25T18:13:47.394Z,31.40
2023-01-25T18:15:55.621Z,31.00
2023-01-25T18:17:58.534Z,30.13
2023-01-25T18:20:01.408Z,29.60
2023-01-25T18:22:04.849Z,30.70
2023-01-25T18:24:24.879Z,30.37
2023-01-25T18:26:29.841Z,29.23
2023-01-25T18:28:34.498Z,30.00
2023-01-25T18:30:40.330Z,30.07
2023-01-25T18:32:43.298Z,28.80
2023-01-25T18:34:48.144Z,30.63
2023-01-25T18:36:52.168Z,29.63
2023-01-25T18:38:55.156Z,30.13
2023-01-25T18:40:58.364Z,29.17
2023-01-25T18:43:01.538Z,30.80
2023-01-25T18:45:07.363Z,29.70
2023-01-25T18:47:13.896Z,30.67
2023-01-25T18:49:16.988Z,28.63
2023-01-25T18:51:19.964Z,28.90
2023-01-25T18:53:22.935Z,28.70
2023-01-25T18:55:27.670Z,30.20
2023-01-25T18:57:30.539Z,30.20
2023-01-25T18:59:33.467Z,27.53
2023-01-25T19:01:37.720Z,26.30
2023-01-25T19:03:41.045Z,29.10
2023-01-25T19:05:43.929Z,29.10
2023-01-25T19:07:46.968Z,26.77
2023-01-25T19:09:50.107Z,30.37
2023-01-25T19:11:53.336Z,29.20
2023-01-25T19:13:58.162Z,29.10
2023-01-25T19:16:02.615Z,27.17
2023-01-25T19:18:07.015Z,27.70
2023-01-25T19:20:11.416Z,28.47
2023-01-25T19:22:14.521Z,30.00
2023-01-25T19:24:19.677Z,28.10
2023-01-25T19:26:24.430Z,28.50
2023-01-25T19:28:27.476Z,30.13
2023-01-25T19:30:31.681Z,28.37
2023-01-25T19:32:34.775Z,28.60
2023-01-25T19:34:39.119Z,29.73
2023-01-25T19:36:47.280Z,30.70
2023-01-25T19:38:51.111Z,28.23
2023-01-25T19:40:54.019Z,29.33
2023-01-25T19:42:56.953Z,29.80
2023-01-25T19:45:03.030Z,27.43
2023-01-25T19:47:06.094Z,28.87
2023-01-25T19:49:10.983Z,29.97
2023-01-25T19:51:16.407Z,29.00
2023-01-25T19:53:19.336Z,27.07
2023-01-25T19:55:22.221Z,30.17
2023-01-25T19:57:25.113Z,27.87
2023-01-25T19:59:29.029Z,27.80
2023-01-25T20:01:32.348Z,29.20
2023-01-25T20:03:35.902Z,29.63
2023-01-25T20:05:39.236Z,28.07
2023-01-25T20:07:43.515Z,28.80
2023-01-25T20:09:46.425Z,28.17
2023-01-25T20:11:50.615Z,27.50
2023-01-25T20:13:55.995Z,26.10
2023-01-25T20:15:59.073Z,26.50
2023-01-25T20:18:01.995Z,29.80
2023-01-25T20:20:05.730Z,28.77
2023-01-25T20:22:08.720Z,27.10
2023-01-25T20:24:13.060Z,28.10
2023-01-25T20:26:17.752Z,26.70
2023-01-25T20:28:20.624Z,26.40
2023-01-25T20:30:23.650Z,28.17
2023-01-25T20:32:32.693Z,29.03
2023-01-25T20:34:36.078Z,27.73
2023-01-25T20:36:39.050Z,28.57
2023-01-25T20:38:42.019Z,29.67
2023-01-25T20:40:46.262Z,27.37
2023-01-25T20:42:49.068Z,27.27
2023-01-25T20:44:51.966Z,26.90
2023-01-25T20:46:55.760Z,27.10
2023-01-25T20:48:58.851Z,26.03
2023-01-25T20:51:02.326Z,25.87
2023-01-25T20:53:05.507Z,24.50
2023-01-25T20:55:09.780Z,22.93
2023-01-25T20:57:14.311Z,26.43
2023-01-25T20:59:19.125Z,26.13
2023-01-25T21:01:23.619Z,26.07
2023-01-25T21:03:29.109Z,24.73
2023-01-25T21:05:32.837Z,23.53
2023-01-25T21:07:35.677Z,24.50
2023-01-25T21:09:38.697Z,28.00
2023-01-25T21:11:41.896Z,27.33
2023-01-25T21:13:46.347Z,26.13
2023-01-25T21:15:59.594Z,27.23
2023-01-25T21:18:02.502Z,25.03
2023-01-25T21:20:06.463Z,26.20
2023-01-25T21:22:09.322Z,24.13
2023-01-25T21:24:12.301Z,25.90
2023-01-25T21:26:17.420Z,25.40
2023-01-25T21:28:20.308Z,26.67
2023-01-25T21:30:24.643Z,26.30
2023-01-25T21:32:27.505Z,23.60
2023-01-25T21:34:33.054Z,27.47
2023-01-25T21:36:35.942Z,22.50
2023-01-25T21:38:39.856Z,24.57
2023-01-25T21:40:42.769Z,27.63
2023-01-25T21:42:45.666Z,23.33
2023-01-25T21:45:05.806Z,26.97
2023-01-25T21:47:28.808Z,25.33
2023-01-25T21:49:50.507Z,25.43
2023-01-25T21:51:54.607Z,25.70
2023-01-25T21:53:57.619Z,24.57
2023-01-25T21:56:00.467Z,23.67
2023-01-25T21:58:03.532Z,24.03
2023-01-25T22:00:08.068Z,26.57
2023-01-25T22:02:14.961Z,24.67
2023-01-25T22:04:19.185Z,23.60
2023-01-25T22:06:22.041Z,25.30
2023-01-25T22:08:24.894Z,24.70
2023-01-25T22:10:27.752Z,23.20
2023-01-25T22:12:30.637Z,24.80
2023-01-25T22:14:33.540Z,22.43
2023-01-25T22:16:36.497Z,23.73
2023-01-25T22:18:42.535Z,23.07
2023-01-25T22:20:45.314Z,24.63
2023-01-25T22:22:48.879Z,25.87
2023-01-25T22:24:51.707Z,27.07
2023-01-25T22:26:59.802Z,28.53
2023-01-25T22:29:02.672Z,26.80
2023-01-25T22:31:05.654Z,27.50
2023-01-25T22:33:08.497Z,28.33
2023-01-25T22:35:13.158Z,28.20
2023-01-25T22:37:16.158Z,29.27
2023-01-25T22:39:19.050Z,28.47
2023-01-25T22:41:23.557Z,27.80
2023-01-25T22:43:26.442Z,31.07
2023-01-25T22:45:29.293Z,28.73
2023-01-25T22:47:32.555Z,29.23
2023-01-25T22:49:35.686Z,29.60
2023-01-25T22:51:40.078Z,29.10
2023-01-25T22:53:43.283Z,31.67
2023-01-25T22:55:46.216Z,31.30
2023-01-25T22:57:49.347Z,32.83
2023-01-25T22:59:52.762Z,31.00
2023-01-25T23:01:55.628Z,30.93
2023-01-25T23:03:58.728Z,31.97
2023-01-25T23:06:01.672Z,31.97
2023-01-25T23:08:07.220Z,31.10
2023-01-25T23:10:12.513Z,33.87
2023-01-25T23:12:16.479Z,34.17
2023-01-25T23:14:37.237Z,32.10
2023-01-25T23:16:40.056Z,29.20
2023-01-25T23:18:50.893Z,30.97
2023-01-25T23:20:54.993Z,29.43
2023-01-25T23:22:57.869Z,32.73
2023-01-25T23:25:02.119Z,32.97
2023-01-25T23:27:05.504Z,32.87
2023-01-25T23:29:10.113Z,30.97
2023-01-25T23:31:18.202Z,33.40
2023-01-25T23:33:21.230Z,35.50
2023-01-25T23:35:24.253Z,32.80
2023-01-25T23:37:27.128Z,33.87
2023-01-25T23:39:30.025Z,36.03
2023-01-25T23:41:34.527Z,32.67
2023-01-25T23:43:38.026Z,32.17
2023-01-25T23:45:41.107Z,33.03
2023-01-25T23:47:44.317Z,32.90
2023-01-25T23:49:47.246Z,31.87
2023-01-25T23:51:50.133Z,33.13
2023-01-25T23:53:55.796Z,34.47
2023-01-25T23:56:00.116Z,34.20
2023-01-25T23:58:05.937Z,33.33
